createdAt,value
2023-03-06T00:00:41.540Z,13.47
2023-03-06T00:03:43.226Z,14.93
2023-03-06T00:06:44.955Z,15.17
2023-03-06T00:09:46.626Z,15.10
2023-03-06T00:12:48.322Z,15.63
2023-03-06T00:15:50.120Z,14.77
2023-03-06T00:18:51.982Z,14.43
2023-03-06T00:21:54.706Z,14.80
2023-03-06T00:24:56.302Z,14.83
2023-03-06T00:27:57.995Z,14.60
2023-03-06T00:30:59.837Z,13.07
2023-03-06T00:34:01.846Z,14.57
2023-03-06T00:37:03.475Z,16.30
2023-03-06T00:40:05.833Z,15.30
2023-03-06T00:43:07.519Z,14.50
2023-03-06T00:46:10.216Z,15.90
2023-03-06T00:49:11.892Z,14.50
2023-03-06T00:52:13.588Z,15.17
2023-03-06T00:55:15.277Z,13.70
2023-03-06T00:58:17.530Z,15.50
2023-03-06T01:01:19.351Z,15.70
2023-03-06T01:04:21.111Z,16.07
2023-03-06T01:07:23.268Z,15.97
2023-03-06T01:10:25.320Z,14.50
2023-03-06T01:13:26.975Z,16.20
2023-03-06T01:16:28.697Z,13.87
2023-03-06T01:19:30.352Z,15.93
2023-03-06T01:22:32.104Z,14.77
2023-03-06T01:25:34.396Z,14.20
2023-03-06T01:28:37.464Z,14.07
2023-03-06T01:31:39.207Z,15.40
2023-03-06T01:34:40.876Z,14.57
2023-03-06T01:37:42.541Z,13.80
2023-03-06T01:40:44.259Z,14.00
2023-03-06T01:43:48.630Z,13.87
2023-03-06T01:46:50.229Z,12.57
2023-03-06T01:49:51.904Z,15.47
2023-03-06T01:52:55.901Z,15.60
2023-03-06T01:55:57.615Z,15.63
2023-03-06T01:58:59.556Z,15.73
2023-03-06T02:02:02.380Z,14.87
2023-03-06T02:05:04.928Z,14.37
2023-03-06T02:08:07.515Z,14.20
2023-03-06T02:11:09.158Z,16.23
2023-03-06T02:14:15.790Z,11.10
2023-03-06T02:17:19.318Z,13.83
2023-03-06T02:20:25.048Z,14.30
2023-03-06T02:23:26.666Z,13.73
2023-03-06T02:26:29.511Z,15.07
2023-03-06T02:29:31.687Z,16.00
2023-03-06T02:32:37.062Z,15.30
2023-03-06T02:35:39.237Z,14.07
2023-03-06T02:38:45.404Z,14.53
2023-03-06T02:41:47.143Z,13.03
2023-03-06T02:44:51.217Z,12.37
2023-03-06T02:47:52.884Z,13.70
2023-03-06T02:50:54.580Z,14.17
2023-03-06T02:53:56.221Z,14.60
2023-03-06T02:56:57.876Z,15.87
2023-03-06T03:00:00.191Z,14.73
2023-03-06T03:03:02.381Z,15.33
2023-03-06T03:06:06.095Z,12.83
2023-03-06T03:09:09.002Z,15.93
2023-03-06T03:12:10.654Z,15.20
2023-03-06T03:15:13.316Z,15.30
2023-03-06T03:18:14.942Z,14.43
2023-03-06T03:21:16.681Z,14.00
2023-03-06T03:24:19.511Z,16.07
2023-03-06T03:27:21.249Z,15.50
2023-03-06T03:30:23.170Z,15.37
2023-03-06T03:33:25.221Z,15.47
2023-03-06T03:36:27.605Z,14.37
2023-03-06T03:39:30.020Z,15.77
2023-03-06T03:42:31.668Z,14.23
2023-03-06T03:45:33.750Z,15.47
2023-03-06T03:48:35.563Z,15.00
2023-03-06T03:51:38.793Z,15.03
2023-03-06T03:54:40.492Z,14.20
2023-03-06T03:57:43.177Z,14.17
2023-03-06T04:00:45.781Z,14.10
2023-03-06T04:03:49.500Z,15.13
2023-03-06T04:06:52.186Z,16.77
2023-03-06T04:09:54.719Z,16.37
2023-03-06T04:13:01.638Z,16.20
2023-03-06T04:16:04.200Z,16.03
2023-03-06T04:19:10.311Z,18.13
2023-03-06T04:22:14.585Z,13.13
2023-03-06T04:25:19.879Z,13.20
2023-03-06T04:28:21.858Z,13.80
2023-03-06T04:31:26.854Z,14.47
2023-03-06T04:34:28.672Z,14.23
2023-03-06T04:37:31.188Z,15.33
2023-03-06T04:40:35.101Z,15.43
2023-03-06T04:43:36.985Z,14.60
2023-03-06T04:46:38.696Z,15.50
2023-03-06T04:49:40.427Z,16.27
2023-03-06T04:52:42.329Z,14.27
2023-03-06T04:55:44.020Z,14.17
2023-03-06T04:58:45.694Z,16.07
2023-03-06T05:01:47.606Z,15.53
2023-03-06T05:04:49.204Z,18.23
2023-03-06T05:07:50.924Z,14.80
2023-03-06T05:10:57.205Z,15.20
2023-03-06T05:13:58.851Z,14.27
2023-03-06T05:17:00.666Z,17.30
2023-03-06T05:20:02.314Z,17.63
2023-03-06T05:23:03.996Z,13.43
2023-03-06T05:26:07.990Z,15.20
2023-03-06T05:29:09.553Z,19.70
2023-03-06T05:32:11.437Z,19.33
2023-03-06T05:35:17.740Z,18.80
2023-03-06T05:38:19.379Z,16.37
2023-03-06T05:41:20.981Z,14.80
2023-03-06T05:44:23.980Z,17.80
2023-03-06T05:47:25.594Z,19.17
2023-03-06T05:50:27.267Z,14.60
2023-03-06T05:53:29.475Z,16.47
2023-03-06T05:56:31.099Z,15.23
2023-03-06T05:59:33.264Z,11.63
2023-03-06T06:02:34.959Z,17.77
2023-03-06T06:05:38.942Z,19.67
2023-03-06T06:08:40.919Z,18.53
2023-03-06T06:11:42.563Z,13.60
2023-03-06T06:14:44.368Z,14.83
2023-03-06T06:17:45.916Z,13.53
2023-03-06T06:20:47.563Z,17.93
2023-03-06T06:23:49.194Z,18.47
2023-03-06T06:26:51.729Z,21.70
2023-03-06T06:29:53.386Z,20.60
2023-03-06T06:32:55.082Z,17.33
2023-03-06T06:35:56.745Z,19.80
2023-03-06T06:38:58.429Z,17.27
2023-03-06T06:42:21.730Z,17.63
2023-03-06T06:45:23.759Z,29.70
2023-03-06T06:48:25.360Z,17.17
2023-03-06T06:51:26.987Z,18.73
2023-03-06T06:54:28.609Z,15.23
2023-03-06T06:57:30.278Z,15.53
2023-03-06T07:00:31.971Z,11.10
2023-03-06T07:03:33.655Z,11.03
2023-03-06T07:06:35.365Z,8.33
2023-03-06T07:09:38.274Z,6.87
2023-03-06T07:12:39.943Z,5.47
2023-03-06T07:15:41.602Z,6.17
2023-03-06T07:18:43.471Z,6.53
2023-03-06T07:21:45.092Z,7.83
2023-03-06T07:24:46.670Z,6.90
2023-03-06T07:27:53.374Z,7.53
2023-03-06T07:30:55.522Z,7.43
2023-03-06T07:33:57.204Z,8.13
2023-03-06T07:36:58.880Z,7.60
2023-03-06T07:40:00.507Z,13.83
2023-03-06T07:43:19.200Z,29.87
2023-03-06T07:46:30.032Z,24.13
2023-03-06T07:49:32.022Z,8.90
2023-03-06T07:52:34.412Z,19.90
2023-03-06T07:55:36.057Z,6.07
2023-03-06T07:58:38.484Z,7.67
2023-03-06T08:01:40.359Z,7.70
2023-03-06T08:04:43.043Z,7.60
2023-03-06T08:07:45.204Z,6.20
2023-03-06T08:10:50.145Z,6.83
2023-03-06T08:13:53.060Z,7.17
2023-03-06T08:16:57.543Z,6.60
2023-03-06T08:19:59.218Z,6.60
2023-03-06T08:23:00.869Z,6.97
2023-03-06T08:26:04.210Z,7.80
2023-03-06T08:29:06.168Z,7.20
2023-03-06T08:32:10.793Z,6.73
2023-03-06T08:35:12.899Z,7.07
2023-03-06T08:38:14.580Z,6.60
2023-03-06T08:41:16.352Z,16.43
2023-03-06T08:44:17.956Z,7.20
2023-03-06T08:47:19.594Z,7.53
2023-03-06T08:50:21.267Z,8.33
2023-03-06T08:53:33.446Z,7.70
2023-03-06T08:56:43.492Z,7.90
2023-03-06T08:59:45.130Z,7.63
2023-03-06T09:02:46.762Z,11.93
2023-03-06T09:05:48.395Z,17.27
2023-03-06T09:08:53.414Z,7.90
2023-03-06T09:11:55.091Z,7.87
2023-03-06T09:14:56.781Z,8.20
2023-03-06T09:17:58.495Z,7.40
2023-03-06T09:21:00.227Z,9.63
2023-03-06T09:24:01.927Z,7.57
2023-03-06T09:27:03.660Z,8.30
2023-03-06T09:30:05.685Z,7.50
2023-03-06T09:33:07.914Z,7.63
2023-03-06T09:36:19.849Z,24.17
2023-03-06T09:39:21.464Z,14.03
2023-03-06T09:42:23.812Z,8.67
2023-03-06T09:45:25.477Z,9.17
2023-03-06T09:48:39.126Z,13.50
2023-03-06T09:52:01.065Z,7.90
2023-03-06T09:55:11.539Z,31.57
2023-03-06T09:58:23.849Z,15.00
2023-03-06T10:01:30.424Z,8.77
2023-03-06T10:04:38.050Z,7.60
2023-03-06T10:07:45.426Z,8.10
2023-03-06T10:10:50.550Z,9.80
2023-03-06T10:13:56.387Z,8.17
2023-03-06T10:16:58.591Z,8.33
2023-03-06T10:20:07.065Z,9.13
2023-03-06T10:23:09.993Z,10.20
2023-03-06T10:26:16.924Z,8.53
2023-03-06T10:29:43.683Z,8.90
2023-03-06T10:32:55.584Z,7.83
2023-03-06T10:35:57.446Z,8.13
2023-03-06T10:39:04.782Z,8.70
2023-03-06T10:42:08.844Z,6.83
2023-03-06T10:45:14.913Z,12.33
2023-03-06T10:48:24.142Z,8.37
2023-03-06T10:51:27.306Z,10.13
2023-03-06T10:54:30.302Z,10.97
2023-03-06T10:57:32.511Z,9.37
2023-03-06T11:00:38.155Z,8.13
2023-03-06T11:03:39.876Z,8.03
2023-03-06T11:06:41.763Z,8.17
2023-03-06T11:10:01.148Z,8.50
2023-03-06T11:13:07.569Z,7.47
2023-03-06T11:16:21.991Z,7.03
2023-03-06T11:19:27.330Z,7.73
2023-03-06T11:22:28.959Z,7.50
2023-03-06T11:25:37.248Z,7.57
2023-03-06T11:28:47.316Z,7.13
2023-03-06T11:32:08.917Z,7.47
2023-03-06T11:35:13.025Z,6.77
2023-03-06T11:38:17.191Z,6.77
2023-03-06T11:41:37.458Z,6.90
2023-03-06T11:44:39.074Z,6.23
2023-03-06T11:47:53.469Z,7.13
2023-03-06T11:51:06.797Z,7.63
2023-03-06T11:54:09.221Z,7.17
2023-03-06T11:57:18.270Z,7.93
2023-03-06T12:00:29.638Z,6.80
2023-03-06T12:03:50.215Z,7.40
2023-03-06T12:06:51.927Z,6.43
2023-03-06T12:09:56.646Z,7.10
2023-03-06T12:13:13.591Z,7.47
2023-03-06T12:16:24.625Z,7.60
2023-03-06T12:19:26.217Z,6.43
2023-03-06T12:22:57.803Z,7.33
2023-03-06T12:26:22.828Z,6.10
2023-03-06T12:29:36.526Z,6.10
2023-03-06T12:32:38.145Z,6.63
2023-03-06T12:35:53.395Z,7.07
2023-03-06T12:39:01.489Z,7.40
2023-03-06T12:42:22.705Z,77.60
2023-03-06T12:45:31.232Z,8.00
2023-03-06T12:48:34.982Z,8.23
2023-03-06T12:51:37.704Z,7.47
2023-03-06T12:54:42.311Z,6.40
2023-03-06T12:57:44.115Z,6.70
2023-03-06T13:01:07.753Z,14.50
2023-03-06T13:04:27.586Z,19.43
2023-03-06T13:07:29.319Z,8.60
2023-03-06T13:10:33.711Z,6.70
2023-03-06T13:13:53.706Z,6.63
2023-03-06T13:16:55.396Z,6.30
2023-03-06T13:20:15.429Z,6.90
2023-03-06T13:23:29.397Z,6.37
2023-03-06T13:26:31.029Z,6.90
2023-03-06T13:29:36.977Z,6.43
2023-03-06T13:32:38.733Z,6.00
2023-03-06T13:35:40.669Z,6.17
2023-03-06T13:38:42.330Z,6.60
2023-03-06T13:41:53.119Z,8.30
2023-03-06T13:44:55.963Z,9.80
2023-03-06T13:51:24.699Z,8.53
2023-03-06T13:54:45.036Z,8.93
2023-03-06T13:58:05.203Z,7.63
2023-03-06T14:01:09.881Z,8.63
2023-03-06T14:04:11.436Z,8.33
2023-03-06T14:07:22.447Z,9.90
2023-03-06T14:10:24.857Z,7.13
2023-03-06T14:13:35.086Z,6.90
2023-03-06T14:16:49.455Z,6.47
2023-03-06T14:19:52.016Z,6.40
2023-03-06T14:22:53.573Z,6.43
2023-03-06T14:25:59.099Z,7.47
2023-03-06T14:29:01.937Z,8.20
2023-03-06T14:32:06.049Z,8.40
2023-03-06T14:35:19.132Z,7.50
2023-03-06T14:38:20.839Z,8.03
2023-03-06T14:41:30.535Z,7.53
2023-03-06T14:44:32.233Z,10.67
2023-03-06T14:47:35.097Z,7.27
2023-03-06T14:50:36.757Z,8.03
2023-03-06T14:53:38.378Z,9.10
2023-03-06T14:56:41.881Z,10.03
2023-03-06T14:59:45.817Z,11.33
2023-03-06T15:02:48.233Z,13.63
2023-03-06T15:05:50.114Z,21.73
2023-03-06T15:08:57.684Z,28.77
2023-03-06T15:12:25.589Z,15.77
2023-03-06T15:15:29.565Z,16.13
2023-03-06T15:18:38.874Z,12.37
2023-03-06T15:21:40.491Z,38.33
2023-03-06T15:24:42.061Z,13.00
2023-03-06T15:27:54.423Z,18.77
2023-03-06T15:31:04.102Z,15.60
2023-03-06T15:34:11.316Z,18.93
2023-03-06T15:37:19.673Z,19.53
2023-03-06T15:40:22.346Z,30.33
2023-03-06T15:43:24.063Z,14.70
2023-03-06T15:46:25.823Z,13.77
2023-03-06T15:49:30.511Z,13.83
2023-03-06T15:52:32.125Z,17.50
2023-03-06T15:55:33.785Z,20.33
2023-03-06T15:58:35.494Z,21.07
2023-03-06T16:01:37.578Z,27.40
2023-03-06T16:04:39.295Z,16.80
2023-03-06T16:07:41.171Z,18.90
2023-03-06T16:10:43.959Z,24.80
2023-03-06T16:13:46.001Z,19.37
2023-03-06T16:16:48.120Z,21.07
2023-03-06T16:19:49.734Z,19.80
2023-03-06T16:22:54.864Z,21.67
2023-03-06T16:25:56.535Z,33.30
2023-03-06T16:28:58.732Z,31.37
2023-03-06T16:32:01.933Z,32.47
2023-03-06T16:35:03.673Z,28.90
2023-03-06T16:38:05.369Z,30.40
2023-03-06T16:41:06.961Z,34.77
2023-03-06T16:44:10.116Z,41.93
2023-03-06T16:47:12.334Z,109.53
2023-03-06T16:50:27.804Z,42.77
2023-03-06T16:53:32.858Z,24.13
2023-03-06T16:56:38.006Z,29.37
2023-03-06T16:59:39.664Z,43.70
2023-03-06T17:02:42.421Z,39.43
2023-03-06T17:05:44.304Z,32.03
2023-03-06T17:08:46.705Z,60.00
2023-03-06T17:11:48.321Z,26.27
2023-03-06T17:14:50.119Z,34.33
2023-03-06T17:17:53.221Z,39.97
2023-03-06T17:20:55.235Z,25.97
2023-03-06T17:23:57.360Z,32.73
2023-03-06T17:26:59.517Z,56.03
2023-03-06T17:30:02.037Z,30.73
2023-03-06T17:33:03.694Z,39.17
2023-03-06T17:36:05.583Z,36.20
2023-03-06T17:39:07.600Z,47.87
2023-03-06T17:42:09.277Z,46.97
2023-03-06T17:45:11.651Z,36.47
2023-03-06T17:48:13.705Z,36.30
2023-03-06T17:51:18.291Z,33.03
2023-03-06T17:54:20.064Z,25.93
2023-03-06T17:57:21.824Z,28.27
2023-03-06T18:00:23.845Z,27.33
2023-03-06T18:03:25.625Z,34.00
2023-03-06T18:06:30.188Z,31.70
2023-03-06T18:09:32.187Z,33.50
2023-03-06T18:12:36.846Z,38.47
2023-03-06T18:15:39.562Z,38.83
2023-03-06T18:18:41.152Z,38.93
2023-03-06T18:21:42.860Z,38.03
2023-03-06T18:24:44.548Z,36.97
2023-03-06T18:27:46.790Z,39.90
2023-03-06T18:30:48.418Z,38.77
2023-03-06T18:33:50.675Z,35.47
2023-03-06T18:36:52.979Z,37.07
2023-03-06T18:39:55.015Z,40.10
2023-03-06T18:42:56.730Z,40.83
2023-03-06T18:45:58.458Z,44.90
2023-03-06T18:49:00.386Z,46.17
2023-03-06T18:52:02.035Z,50.90
2023-03-06T18:55:04.047Z,45.00
2023-03-06T18:58:06.136Z,44.30
2023-03-06T19:01:08.082Z,41.30
2023-03-06T19:04:10.721Z,46.23
2023-03-06T19:07:15.231Z,49.03
2023-03-06T19:10:17.032Z,41.43
2023-03-06T19:13:18.688Z,41.27
2023-03-06T19:16:25.366Z,38.47
2023-03-06T19:19:29.296Z,41.27
2023-03-06T19:22:34.027Z,43.20
2023-03-06T19:25:35.701Z,44.37
2023-03-06T19:28:38.468Z,41.07
2023-03-06T19:31:40.206Z,40.43
2023-03-06T19:34:41.864Z,48.50
2023-03-06T19:37:43.476Z,35.37
2023-03-06T19:40:48.762Z,37.13
2023-03-06T19:43:58.531Z,37.93
2023-03-06T19:47:00.295Z,34.40
2023-03-06T19:50:01.929Z,28.27
2023-03-06T19:53:04.549Z,37.73
2023-03-06T19:56:07.319Z,40.30
2023-03-06T19:59:08.923Z,37.10
2023-03-06T20:02:11.105Z,39.70
2023-03-06T20:05:12.808Z,36.27
2023-03-06T20:08:14.533Z,37.00
2023-03-06T20:11:20.932Z,38.07
2023-03-06T20:14:22.798Z,37.70
2023-03-06T20:17:24.780Z,42.17
2023-03-06T20:20:26.517Z,33.37
2023-03-06T20:23:28.476Z,34.47
2023-03-06T20:26:30.191Z,34.60
2023-03-06T20:29:31.806Z,32.77
2023-03-06T20:32:33.531Z,31.97
2023-03-06T20:35:39.515Z,29.90
2023-03-06T20:38:41.332Z,27.23
2023-03-06T20:41:43.376Z,29.03
2023-03-06T20:44:44.947Z,28.93
2023-03-06T20:47:47.240Z,24.03
2023-03-06T20:50:58.140Z,25.67
2023-03-06T20:54:00.964Z,25.87
2023-03-06T20:57:02.595Z,23.90
2023-03-06T21:00:05.034Z,23.90
2023-03-06T21:03:06.732Z,23.87
2023-03-06T21:06:08.392Z,26.07
2023-03-06T21:09:10.915Z,26.97
2023-03-06T21:12:12.536Z,24.30
2023-03-06T21:15:14.271Z,25.07
2023-03-06T21:18:15.921Z,24.93
2023-03-06T21:21:18.830Z,25.33
2023-03-06T21:24:21.334Z,24.10
2023-03-06T21:27:23.142Z,24.17
2023-03-06T21:30:25.032Z,23.77
2023-03-06T21:33:26.792Z,22.10
2023-03-06T21:36:28.555Z,22.97
2023-03-06T21:39:30.180Z,29.08
2023-03-06T21:42:31.821Z,27.47
2023-03-06T21:45:33.456Z,24.13
2023-03-06T21:48:35.125Z,21.93
2023-03-06T21:51:36.752Z,23.20
2023-03-06T21:54:38.459Z,26.37
2023-03-06T21:57:40.099Z,23.90
2023-03-06T22:00:41.740Z,18.43
2023-03-06T22:03:43.625Z,25.23
2023-03-06T22:06:45.295Z,25.13
2023-03-06T22:09:46.973Z,25.33
2023-03-06T22:12:48.756Z,32.63
2023-03-06T22:15:51.407Z,26.23
2023-03-06T22:18:53.060Z,24.93
2023-03-06T22:21:54.731Z,26.03
2023-03-06T22:24:56.284Z,24.27
2023-03-06T22:27:57.877Z,23.37
2023-03-06T22:31:06.161Z,18.77
2023-03-06T22:34:07.712Z,22.53
2023-03-06T22:37:09.309Z,25.17
2023-03-06T22:40:11.186Z,18.53
2023-03-06T22:43:12.777Z,20.60
2023-03-06T22:46:15.738Z,17.30
2023-03-06T22:49:17.433Z,23.17
2023-03-06T22:52:19.675Z,21.30
2023-03-06T22:55:21.316Z,25.83
2023-03-06T22:58:22.952Z,23.00
2023-03-06T23:01:28.992Z,27.90
2023-03-06T23:04:30.673Z,26.73
2023-03-06T23:07:32.260Z,26.20
2023-03-06T23:10:37.735Z,25.03
2023-03-06T23:13:58.330Z,22.23
2023-03-06T23:17:18.239Z,19.27
2023-03-06T23:20:41.614Z,17.27
2023-03-06T23:24:02.109Z,16.87
2023-03-06T23:27:04.019Z,16.07
2023-03-06T23:30:06.240Z,17.27
2023-03-06T23:33:08.334Z,18.40
2023-03-06T23:36:11.714Z,17.63
2023-03-06T23:39:13.421Z,20.37
2023-03-06T23:42:15.306Z,19.63
2023-03-06T23:45:17.084Z,18.63
2023-03-06T23:48:18.660Z,17.20
2023-03-06T23:51:21.293Z,17.83
2023-03-06T23:54:23.062Z,16.93
2023-03-06T23:57:25.064Z,16.70
